Time,TemperatureF,DewpointF,PressureIn,WindDirection,WindDirectionDegrees,WindSpeedMPH,WindSpeedGustMPH,Humidity,HourlyPrecipIn,Conditions,Clouds,dailyrainin,SoftwareType,DateUTC
2013-02-28 00:04:00,31.0,26.8,29.09,North,0,0.0,-999.0,84,0.00,,,-99.99,,2013-02-28 09:04:00,
2013-02-28 00:09:00,31.0,26.5,29.09,North,0,0.0,-999.0,83,0.00,,,-99.99,,2013-02-28 09:09:00,
2013-02-28 00:14:00,31.0,27.0,29.09,North,0,0.0,-999.0,84,0.00,,,-99.99,,2013-02-28 09:14:00,
2013-02-28 00:19:00,31.0,26.8,29.09,North,0,0.0,-999.0,83,0.00,,,-99.99,,2013-02-28 09:19:00,
2013-02-28 00:24:00,30.8,27.1,29.09,North,0,0.0,-999.0,85,0.00,,,-99.99,,2013-02-28 09:24:00,
2013-02-28 00:29:00,30.9,26.4,29.09,North,0,0.0,-999.0,83,0.00,,,-99.99,,2013-02-28 09:29:00,
2013-02-28 00:34:00,31.3,25.8,29.09,North,0,0.0,-999.0,79,0.00,,,-99.99,,2013-02-28 09:34:00,
2013-02-28 00:39:00,31.3,26.2,29.09,North,0,0.0,-999.0,81,0.00,,,-99.99,,2013-02-28 09:39:00,
2013-02-28 00:44:00,31.1,26.6,29.09,North,0,0.0,-999.0,82,0.00,,,-99.99,,2013-02-28 09:44:00,
2013-02-28 00:49:00,31.3,25.9,29.09,North,0,0.0,-999.0,80,0.00,,,-99.99,,2013-02-28 09:49:00,
2013-02-28 00:54:00,31.3,25.4,29.09,North,0,0.0,-999.0,78,0.00,,,-99.99,,2013-02-28 09:54:00,
2013-02-28 00:59:00,31.3,26.7,29.10,North,0,0.0,-999.0,83,0.00,,,-99.99,,2013-02-28 09:59:00,
2013-02-28 01:04:00,31.1,27.4,29.10,North,0,0.0,-999.0,85,0.00,,,-99.99,,2013-02-28 10:04:00,
2013-02-28 01:09:00,30.7,27.2,29.10,North,0,0.0,-999.0,86,0.00,,,-99.99,,2013-02-28 10:09:00,
2013-02-28 01:15:00,30.5,27.0,29.10,North,0,0.0,-999.0,86,0.00,,,-99.99,,2013-02-28 10:15:00,
2013-02-28 01:20:00,30.6,27.2,29.10,North,0,0.0,-999.0,86,0.00,,,-99.99,,2013-02-28 10:20:00,
2013-02-28 01:25:00,30.4,27.0,29.10,North,0,0.0,-999.0,87,0.00,,,-99.99,,2013-02-28 10:25:00,
2013-02-28 01:30:00,30.3,26.9,29.10,North,0,0.0,-999.0,86,0.00,,,-99.99,,2013-02-28 10:30:00,
2013-02-28 01:35:00,30.2,26.9,29.10,North,0,0.0,-999.0,87,0.00,,,-99.99,,2013-02-28 10:35:00,
2013-02-28 01:40:00,30.0,26.9,29.10,North,0,0.0,-999.0,88,0.00,,,-99.99,,2013-02-28 10:40:00,
2013-02-28 01:45:00,29.8,26.5,29.10,North,0,0.0,-999.0,87,0.00,,,-99.99,,2013-02-28 10:45:00,
2013-02-28 01:50:00,29.7,26.7,29.10,North,0,0.0,-999.0,88,0.00,,,-99.99,,2013-02-28 10:50:00,
2013-02-28 01:55:00,29.6,26.4,29.10,North,0,0.0,-999.0,87,0.00,,,-99.99,,2013-02-28 10:55:00,
2013-02-28 02:00:00,29.4,26.1,29.13,North,0,0.0,-999.0,87,0.00,,,-99.99,,2013-02-28 11:00:00,
2013-02-28 02:05:00,29.3,26.3,29.13,North,0,0.0,-999.0,88,0.00,,,-99.99,,2013-02-28 11:05:00,
2013-02-28 02:10:00,29.2,26.3,29.13,North,0,0.0,-999.0,88,0.00,,,-99.99,,2013-02-28 11:10:00,
2013-02-28 02:15:00,29.2,26.4,29.13,North,0,0.0,-999.0,89,0.00,,,-99.99,,2013-02-28 11:15:00,
2013-02-28 02:20:00,29.1,26.3,29.13,North,0,0.0,-999.0,89,0.00,,,-99.99,,2013-02-28 11:20:00,
2013-02-28 02:25:00,29.0,26.3,29.13,North,0,0.0,-999.0,89,0.00,,,-99.99,,2013-02-28 11:25:00,
2013-02-28 02:30:00,29.1,26.4,29.13,North,0,0.0,-999.0,89,0.00,,,-99.99,,2013-02-28 11:30:00,
2013-02-28 02:35:00,29.2,26.6,29.13,North,0,0.0,-999.0,90,0.00,,,-99.99,,2013-02-28 11:35:00,
2013-02-28 02:40:00,29.1,26.5,29.13,North,0,0.0,-999.0,89,0.00,,,-99.99,,2013-02-28 11:40:00,
2013-02-28 02:45:00,29.2,26.5,29.13,North,0,0.0,-999.0,89,0.00,,,-99.99,,2013-02-28 11:45:00,
2013-02-28 02:50:00,29.2,26.1,29.13,North,0,0.0,-999.0,87,0.00,,,-99.99,,2013-02-28 11:50:00,
2013-02-28 02:55:00,29.4,26.4,29.13,North,0,0.0,-999.0,88,0.00,,,-99.99,,2013-02-28 11:55:00,
2013-02-28 03:02:00,29.2,26.2,29.14,North,0,0.0,-999.0,88,0.00,,,-99.99,,2013-02-28 12:02:00,
2013-02-28 03:07:00,29.2,26.4,29.14,North,0,0.0,-999.0,89,0.00,,,-99.99,,2013-02-28 12:07:00,
2013-02-28 03:12:00,29.2,26.6,29.14,North,0,0.0,-999.0,89,0.00,,,-99.99,,2013-02-28 12:12:00,
2013-02-28 03:17:00,29.1,26.4,29.14,North,0,0.0,-999.0,89,0.00,,,-99.99,,2013-02-28 12:17:00,
2013-02-28 03:22:00,29.2,26.4,29.14,North,0,0.0,-999.0,88,0.00,,,-99.99,,2013-02-28 12:22:00,
2013-02-28 03:27:00,29.3,25.9,29.14,North,0,0.0,-999.0,87,0.00,,,-99.99,,2013-02-28 12:27:00,
2013-02-28 03:32:00,29.7,26.4,29.14,North,0,0.0,-999.0,87,0.00,,,-99.99,,2013-02-28 12:32:00,
2013-02-28 03:37:00,29.6,26.0,29.14,North,0,0.0,-999.0,86,0.00,,,-99.99,,2013-02-28 12:37:00,
2013-02-28 03:42:00,29.7,26.1,29.14,North,0,0.0,-999.0,86,0.00,,,-99.99,,2013-02-28 12:42:00,
2013-02-28 03:47:00,29.8,26.2,29.14,North,0,0.0,-999.0,86,0.00,,,-99.99,,2013-02-28 12:47:00,
2013-02-28 03:52:00,29.8,26.0,29.14,North,0,0.0,-999.0,85,0.00,,,-99.99,,2013-02-28 12:52:00,
2013-02-28 03:57:00,29.8,25.7,29.14,North,0,0.0,-999.0,84,0.00,,,-99.99,,2013-02-28 12:57:00,
2013-02-28 04:02:00,29.7,25.5,29.15,North,0,0.0,-999.0,84,0.00,,,-99.99,,2013-02-28 13:02:00,
2013-02-28 04:07:00,30.4,24.9,29.15,North,0,0.0,-999.0,79,0.00,,,-99.99,,2013-02-28 13:07:00,
2013-02-28 04:12:00,29.7,25.3,29.15,North,0,0.0,-999.0,83,0.00,,,-99.99,,2013-02-28 13:12:00,
2013-02-28 04:17:00,29.2,25.2,29.15,North,0,0.0,-999.0,84,0.00,,,-99.99,,2013-02-28 13:17:00,
2013-02-28 04:22:00,29.0,24.9,29.15,North,0,0.0,-999.0,84,0.00,,,-99.99,,2013-02-28 13:22:00,
2013-02-28 04:27:00,28.8,24.9,29.15,North,0,0.0,-999.0,85,0.00,,,-99.99,,2013-02-28 13:27:00,
2013-02-28 04:32:00,28.8,24.6,29.15,North,0,0.0,-999.0,84,0.00,,,-99.99,,2013-02-28 13:32:00,
2013-02-28 04:37:00,28.9,24.2,29.15,North,0,0.0,-999.0,82,0.00,,,-99.99,,2013-02-28 13:37:00,
2013-02-28 04:42:00,29.1,24.2,29.15,North,0,0.0,-999.0,81,0.00,,,-99.99,,2013-02-28 13:42:00,
2013-02-28 04:47:00,29.2,25.1,29.15,North,0,0.0,-999.0,84,0.00,,,-99.99,,2013-02-28 13:47:00,
2013-02-28 04:53:00,29.2,25.4,29.15,North,0,0.0,-999.0,85,0.00,,,-99.99,,2013-02-28 13:53:00,
2013-02-28 04:58:00,28.8,25.5,29.15,North,0,0.0,-999.0,87,0.00,,,-99.99,,2013-02-28 13:58:00,
2013-02-28 05:03:00,28.6,25.6,29.16,North,0,0.0,-999.0,88,0.00,,,-99.99,,2013-02-28 14:03:00,
2013-02-28 05:08:00,28.6,25.8,29.16,North,0,0.0,-999.0,89,0.00,,,-99.99,,2013-02-28 14:08:00,
2013-02-28 05:13:00,28.1,25.2,29.16,North,0,0.0,-999.0,88,0.00,,,-99.99,,2013-02-28 14:13:00,
2013-02-28 05:18:00,28.0,25.0,29.16,North,0,0.0,-999.0,88,0.00,,,-99.99,,2013-02-28 14:18:00,
2013-02-28 05:23:00,28.0,25.0,29.16,North,0,0.0,-999.0,88,0.00,,,-99.99,,2013-02-28 14:23:00,
2013-02-28 05:28:00,28.0,25.0,29.16,North,0,0.0,-999.0,88,0.00,,,-99.99,,2013-02-28 14:28:00,
2013-02-28 05:33:00,28.1,25.2,29.16,North,0,0.0,-999.0,88,0.00,,,-99.99,,2013-02-28 14:33:00,
2013-02-28 05:38:00,27.8,25.0,29.16,North,0,0.0,-999.0,89,0.00,,,-99.99,,2013-02-28 14:38:00,
2013-02-28 05:43:00,27.8,25.1,29.16,North,0,0.0,-999.0,89,0.00,,,-99.99,,2013-02-28 14:43:00,
2013-02-28 05:48:00,27.8,25.1,29.16,North,0,0.0,-999.0,89,0.00,,,-99.99,,2013-02-28 14:48:00,
2013-02-28 05:54:00,27.7,25.2,29.16,North,0,0.0,-999.0,90,0.00,,,-99.99,,2013-02-28 14:54:00,
2013-02-28 05:59:00,27.5,24.9,29.17,North,0,0.0,-999.0,89,0.00,,,-99.99,,2013-02-28 14:59:00,
2013-02-28 06:04:00,27.4,24.7,29.17,North,0,0.0,-999.0,89,0.00,,,-99.99,,2013-02-28 15:04:00,
2013-02-28 06:09:00,27.4,24.9,29.17,North,0,0.0,-999.0,90,0.00,,,-99.99,,2013-02-28 15:09:00,
2013-02-28 06:15:00,27.5,25.2,29.17,North,0,0.0,-999.0,90,0.00,,,-99.99,,2013-02-28 15:15:00,
2013-02-28 06:21:00,27.3,25.0,29.17,North,0,0.0,-999.0,90,0.00,,,-99.99,,2013-02-28 15:21:00,
2013-02-28 06:26:00,27.1,24.9,29.17,North,0,0.0,-999.0,91,0.00,,,-99.99,,2013-02-28 15:26:00,
2013-02-28 06:31:00,27.2,25.0,29.17,North,0,0.0,-999.0,91,0.00,,,-99.99,,2013-02-28 15:31:00,
2013-02-28 06:37:00,27.2,25.1,29.17,North,0,0.0,-999.0,91,0.00,,,-99.99,,2013-02-28 15:37:00,
2013-02-28 06:42:00,27.0,25.1,29.17,North,0,0.0,-999.0,92,0.00,,,-99.99,,2013-02-28 15:42:00,
2013-02-28 06:47:00,26.9,24.9,29.17,North,0,0.0,-999.0,92,0.00,,,-99.99,,2013-02-28 15:47:00,
2013-02-28 06:52:00,26.5,24.5,29.17,North,0,0.0,-999.0,92,0.00,,,-99.99,,2013-02-28 15:52:00,
2013-02-28 06:57:00,26.5,24.5,29.17,North,0,0.0,-999.0,92,0.00,,,-99.99,,2013-02-28 15:57:00,
2013-02-28 07:03:00,26.7,24.9,29.18,North,0,0.0,-999.0,92,0.00,,,-99.99,,2013-02-28 16:03:00,
2013-02-28 07:08:00,26.7,24.7,29.18,North,0,0.0,-999.0,92,0.00,,,-99.99,,2013-02-28 16:08:00,
2013-02-28 07:13:00,26.6,24.7,29.18,North,0,0.0,-999.0,92,0.00,,,-99.99,,2013-02-28 16:13:00,
2013-02-28 07:18:00,26.7,24.9,29.18,North,0,0.0,-999.0,92,0.00,,,-99.99,,2013-02-28 16:18:00,
2013-02-28 07:24:00,26.5,24.7,29.18,North,0,0.0,-999.0,92,0.00,,,-99.99,,2013-02-28 16:24:00,
2013-02-28 07:29:00,26.3,24.5,29.18,North,0,0.0,-999.0,92,0.00,,,-99.99,,2013-02-28 16:29:00,
2013-02-28 07:34:00,26.1,24.1,29.18,North,0,0.0,-999.0,92,0.00,,,-99.99,,2013-02-28 16:34:00,
2013-02-28 07:39:00,26.2,24.3,29.18,North,0,0.0,-999.0,92,0.00,,,-99.99,,2013-02-28 16:39:00,
2013-02-28 07:44:00,26.1,24.0,29.18,North,0,0.0,-999.0,91,0.00,,,-99.99,,2013-02-28 16:44:00,
2013-02-28 07:49:00,26.1,24.2,29.18,North,0,0.0,-999.0,92,0.00,,,-99.99,,2013-02-28 16:49:00,
2013-02-28 07:54:00,25.9,23.9,29.18,North,0,0.0,-999.0,91,0.00,,,-99.99,,2013-02-28 16:54:00,
2013-02-28 07:59:00,25.9,23.9,29.19,North,0,0.0,-999.0,91,0.00,,,-99.99,,2013-02-28 16:59:00,
2013-02-28 08:04:00,26.0,24.0,29.19,North,0,0.0,-999.0,91,0.00,,,-99.99,,2013-02-28 17:04:00,
2013-02-28 08:09:00,26.2,24.2,29.19,North,0,0.0,-999.0,91,0.00,,,-99.99,,2013-02-28 17:09:00,
2013-02-28 08:14:00,26.1,24.1,29.19,North,0,0.0,-999.0,92,0.00,,,-99.99,,2013-02-28 17:14:00,
2013-02-28 08:19:00,26.2,24.2,29.19,North,0,0.0,-999.0,91,0.00,,,-99.99,,2013-02-28 17:19:00,
2013-02-28 08:24:00,26.3,24.3,29.19,North,0,0.0,-999.0,92,0.01,,,-99.99,,2013-02-28 17:24:00,
2013-02-28 08:29:00,26.3,24.3,29.19,North,0,0.0,-999.0,92,0.01,,,-99.99,,2013-02-28 17:29:00,
2013-02-28 08:34:00,26.5,24.5,29.19,North,0,0.0,-999.0,92,0.01,,,-99.99,,2013-02-28 17:34:00,
2013-02-28 08:39:00,26.5,24.7,29.19,North,0,0.0,-999.0,92,0.01,,,-99.99,,2013-02-28 17:39:00,
2013-02-28 08:44:00,26.8,25.0,29.19,North,0,0.0,-999.0,92,0.01,,,-99.99,,2013-02-28 17:44:00,
2013-02-28 08:49:00,27.0,25.1,29.19,North,0,0.0,-999.0,92,0.01,,,-99.99,,2013-02-28 17:49:00,
2013-02-28 08:54:00,27.2,25.3,29.19,North,0,0.0,-999.0,92,0.01,,,-99.99,,2013-02-28 17:54:00,
2013-02-28 09:00:00,27.4,25.5,29.21,North,0,0.0,-999.0,92,0.00,,,-99.99,,2013-02-28 18:00:00,
2013-02-28 09:05:00,27.6,25.7,29.21,North,0,0.0,-999.0,92,0.00,,,-99.99,,2013-02-28 18:05:00,
2013-02-28 09:10:00,28.0,26.0,29.21,North,0,0.0,-999.0,92,0.00,,,-99.99,,2013-02-28 18:10:00,
2013-02-28 09:15:00,28.1,26.1,29.21,North,0,0.0,-999.0,92,0.00,,,-99.99,,2013-02-28 18:15:00,
2013-02-28 09:20:00,28.6,26.8,29.21,North,0,0.0,-999.0,92,0.00,,,-99.99,,2013-02-28 18:20:00,
2013-02-28 09:25:00,29.7,27.0,29.21,North,0,0.0,-999.0,89,0.00,,,-99.99,,2013-02-28 18:25:00,
2013-02-28 09:30:00,29.7,26.8,29.21,North,0,0.0,-999.0,88,0.00,,,-99.99,,2013-02-28 18:30:00,
2013-02-28 09:35:00,30.0,27.2,29.21,North,0,0.0,-999.0,89,0.00,,,-99.99,,2013-02-28 18:35:00,
2013-02-28 09:40:00,31.0,27.6,29.21,North,0,0.0,-999.0,87,0.00,,,-99.99,,2013-02-28 18:40:00,
2013-02-28 09:45:00,31.3,27.3,29.21,North,0,0.0,-999.0,84,0.00,,,-99.99,,2013-02-28 18:45:00,
2013-02-28 09:50:00,31.6,27.8,29.21,North,0,0.0,-999.0,85,0.00,,,-99.99,,2013-02-28 18:50:00,
2013-02-28 09:55:00,32.4,27.0,29.21,North,0,0.0,-999.0,80,0.00,,,-99.99,,2013-02-28 18:55:00,
2013-02-28 10:00:00,33.9,27.6,29.21,North,0,0.0,-999.0,77,0.00,,,-99.99,,2013-02-28 19:00:00,
2013-02-28 10:05:00,34.4,27.2,29.21,North,0,0.0,-999.0,74,0.00,,,-99.99,,2013-02-28 19:05:00,
2013-02-28 10:10:00,35.1,27.0,29.21,North,0,0.0,-999.0,72,0.00,,,-99.99,,2013-02-28 19:10:00,
2013-02-28 10:15:00,35.4,27.6,29.21,North,0,0.0,-999.0,72,0.00,,,-99.99,,2013-02-28 19:15:00,
2013-02-28 10:20:00,35.6,27.6,29.21,North,0,0.0,-999.0,72,0.00,,,-99.99,,2013-02-28 19:20:00,
2013-02-28 10:26:00,35.4,27.0,29.21,North,0,0.0,-999.0,71,0.00,,,-99.99,,2013-02-28 19:26:00,
2013-02-28 10:31:00,34.7,26.0,29.21,North,0,0.0,-999.0,70,0.00,,,-99.99,,2013-02-28 19:31:00,
2013-02-28 10:36:00,34.3,26.2,29.21,North,0,0.0,-999.0,71,0.00,,,-99.99,,2013-02-28 19:36:00,
2013-02-28 10:41:00,33.5,25.8,29.21,North,0,0.0,-999.0,73,0.00,,,-99.99,,2013-02-28 19:41:00,
2013-02-28 10:46:00,33.2,26.5,29.21,North,0,0.0,-999.0,76,0.00,,,-99.99,,2013-02-28 19:46:00,
2013-02-28 10:51:00,33.3,26.9,29.21,North,0,0.0,-999.0,77,0.00,,,-99.99,,2013-02-28 19:51:00,
2013-02-28 10:56:00,33.9,26.6,29.21,North,0,0.0,-999.0,74,0.00,,,-99.99,,2013-02-28 19:56:00,
2013-02-28 11:01:00,34.5,25.2,29.22,North,0,0.0,-999.0,68,0.00,,,-99.99,,2013-02-28 20:01:00,
2013-02-28 11:06:00,34.2,26.1,29.22,North,0,0.0,-999.0,71,0.00,,,-99.99,,2013-02-28 20:06:00,
2013-02-28 11:11:00,34.2,26.7,29.22,North,0,0.0,-999.0,73,0.00,,,-99.99,,2013-02-28 20:11:00,
2013-02-28 11:16:00,34.8,27.5,29.22,North,0,0.0,-999.0,74,0.00,,,-99.99,,2013-02-28 20:16:00,
2013-02-28 11:21:00,34.3,26.1,29.22,North,0,0.0,-999.0,71,0.00,,,-99.99,,2013-02-28 20:21:00,
2013-02-28 11:26:00,35.4,27.4,29.22,North,0,0.0,-999.0,72,0.00,,,-99.99,,2013-02-28 20:26:00,
2013-02-28 11:31:00,35.3,27.2,29.22,North,0,0.0,-999.0,72,0.00,,,-99.99,,2013-02-28 20:31:00,
2013-02-28 11:36:00,34.8,25.7,29.22,North,0,0.0,-999.0,68,0.00,,,-99.99,,2013-02-28 20:36:00,
2013-02-28 11:41:00,35.5,27.1,29.22,North,0,0.0,-999.0,71,0.00,,,-99.99,,2013-02-28 20:41:00,
2013-02-28 11:46:00,35.4,26.9,29.22,North,0,0.0,-999.0,70,0.00,,,-99.99,,2013-02-28 20:46:00,
2013-02-28 11:51:00,35.1,26.2,29.22,North,0,0.0,-999.0,69,0.00,,,-99.99,,2013-02-28 20:51:00,
2013-02-28 11:56:00,34.8,27.0,29.22,North,0,0.0,-999.0,72,0.00,,,-99.99,,2013-02-28 20:56:00,
2013-02-28 12:01:00,34.9,26.2,29.22,North,0,0.0,-999.0,70,0.00,,,-99.99,,2013-02-28 21:01:00,
2013-02-28 12:06:00,34.8,26.5,29.22,North,0,0.0,-999.0,71,0.00,,,-99.99,,2013-02-28 21:06:00,
2013-02-28 12:11:00,35.4,27.1,29.22,North,0,0.0,-999.0,71,0.00,,,-99.99,,2013-02-28 21:11:00,
2013-02-28 12:16:00,35.5,27.6,29.22,North,0,0.0,-999.0,72,0.00,,,-99.99,,2013-02-28 21:16:00,
2013-02-28 12:21:00,35.6,27.5,29.22,North,0,0.0,-999.0,71,0.00,,,-99.99,,2013-02-28 21:21:00,
2013-02-28 12:26:00,35.6,27.0,29.22,North,0,0.0,-999.0,70,0.00,,,-99.99,,2013-02-28 21:26:00,
2013-02-28 12:31:00,35.4,27.3,29.22,North,0,0.0,-999.0,72,0.00,,,-99.99,,2013-02-28 21:31:00,
2013-02-28 12:36:00,35.4,27.6,29.22,North,0,0.0,-999.0,72,0.00,,,-99.99,,2013-02-28 21:36:00,
2013-02-28 12:41:00,35.2,26.9,29.22,North,0,0.0,-999.0,71,0.00,,,-99.99,,2013-02-28 21:41:00,
2013-02-28 12:46:00,34.9,26.8,29.22,North,0,0.0,-999.0,72,0.00,,,-99.99,,2013-02-28 21:46:00,
2013-02-28 12:51:00,34.8,25.8,29.22,North,0,0.0,-999.0,69,0.00,,,-99.99,,2013-02-28 21:51:00,
2013-02-28 12:56:00,35.1,25.3,29.22,North,0,0.0,-999.0,67,0.00,,,-99.99,,2013-02-28 21:56:00,
2013-02-28 13:01:00,34.8,25.6,29.22,North,0,0.0,-999.0,68,0.00,,,-99.99,,2013-02-28 22:01:00,
2013-02-28 13:06:00,34.8,26.3,29.22,North,0,0.0,-999.0,71,0.00,,,-99.99,,2013-02-28 22:06:00,
2013-02-28 13:11:00,34.6,26.0,29.22,North,0,0.0,-999.0,70,0.00,,,-99.99,,2013-02-28 22:11:00,
2013-02-28 13:16:00,34.4,27.0,29.22,North,0,0.0,-999.0,74,0.00,,,-99.99,,2013-02-28 22:16:00,
2013-02-28 13:21:00,34.6,25.5,29.22,North,0,0.0,-999.0,69,0.00,,,-99.99,,2013-02-28 22:21:00,
2013-02-28 13:26:00,34.7,26.6,29.22,North,0,0.0,-999.0,71,0.01,,,-99.99,,2013-02-28 22:26:00,
2013-02-28 13:31:00,33.8,26.9,29.22,North,0,0.0,-999.0,75,0.01,,,-99.99,,2013-02-28 22:31:00,
2013-02-28 13:36:00,33.4,26.7,29.22,North,0,0.0,-999.0,76,0.01,,,-99.99,,2013-02-28 22:36:00,
2013-02-28 13:41:00,33.4,26.9,29.22,North,0,0.0,-999.0,76,0.01,,,-99.99,,2013-02-28 22:41:00,
2013-02-28 13:46:00,34.6,27.2,29.22,North,0,0.0,-999.0,74,0.01,,,-99.99,,2013-02-28 22:46:00,
2013-02-28 13:51:00,35.0,28.0,29.22,North,0,0.0,-999.0,75,0.01,,,-99.99,,2013-02-28 22:51:00,
2013-02-28 13:56:00,35.2,26.8,29.22,North,0,0.0,-999.0,70,0.01,,,-99.99,,2013-02-28 22:56:00,
2013-02-28 14:01:00,34.8,27.2,29.22,North,0,0.0,-999.0,73,0.00,,,-99.99,,2013-02-28 23:01:00,
2013-02-28 14:06:00,34.9,27.6,29.22,North,0,0.0,-999.0,74,0.00,,,-99.99,,2013-02-28 23:06:00,
2013-02-28 14:11:00,34.6,27.1,29.22,North,0,0.0,-999.0,73,0.00,,,-99.99,,2013-02-28 23:11:00,
2013-02-28 14:16:00,34.6,26.9,29.22,North,0,0.0,-999.0,72,0.00,,,-99.99,,2013-02-28 23:16:00,
2013-02-28 14:21:00,34.6,26.6,29.22,North,0,0.0,-999.0,72,0.00,,,-99.99,,2013-02-28 23:21:00,
2013-02-28 14:26:00,34.8,27.4,29.22,North,0,0.0,-999.0,74,0.00,,,-99.99,,2013-02-28 23:26:00,
2013-02-28 14:31:00,34.9,27.2,29.22,North,0,0.0,-999.0,73,0.00,,,-99.99,,2013-02-28 23:31:00,
2013-02-28 14:36:00,35.1,26.9,29.22,North,0,0.0,-999.0,71,0.00,,,-99.99,,2013-02-28 23:36:00,
2013-02-28 14:41:00,34.3,26.2,29.22,North,0,0.0,-999.0,72,0.00,,,-99.99,,2013-02-28 23:41:00,
2013-02-28 14:46:00,34.3,26.4,29.22,North,0,0.0,-999.0,72,0.00,,,-99.99,,2013-02-28 23:46:00,
2013-02-28 14:51:00,34.6,27.0,29.22,North,0,0.0,-999.0,73,0.00,,,-99.99,,2013-02-28 23:51:00,
2013-02-28 14:56:00,34.2,26.4,29.22,North,0,0.0,-999.0,72,0.00,,,-99.99,,2013-02-28 23:56:00,
2013-02-28 15:01:00,34.5,27.1,29.22,North,0,0.0,-999.0,74,0.00,,,-99.99,,2013-03-01 00:01:00,
2013-02-28 15:06:00,33.8,26.1,29.22,North,0,0.0,-999.0,73,0.00,,,-99.99,,2013-03-01 00:06:00,
2013-02-28 15:11:00,34.2,26.4,29.22,North,0,0.0,-999.0,72,0.00,,,-99.99,,2013-03-01 00:11:00,
2013-02-28 15:16:00,34.0,26.2,29.22,North,0,0.0,-999.0,72,0.00,,,-99.99,,2013-03-01 00:16:00,
2013-02-28 15:21:00,33.7,26.5,29.22,North,0,0.0,-999.0,74,0.00,,,-99.99,,2013-03-01 00:21:00,
2013-02-28 15:26:00,33.5,26.7,29.22,North,0,0.0,-999.0,75,0.00,,,-99.99,,2013-03-01 00:26:00,
2013-02-28 15:31:00,33.3,26.9,29.22,North,0,0.0,-999.0,76,0.00,,,-99.99,,2013-03-01 00:31:00,
2013-02-28 15:36:00,33.2,27.1,29.22,North,0,0.0,-999.0,78,0.00,,,-99.99,,2013-03-01 00:36:00,
2013-02-28 15:41:00,33.4,27.0,29.22,North,0,0.0,-999.0,77,0.00,,,-99.99,,2013-03-01 00:41:00,
2013-02-28 15:46:00,33.5,26.8,29.22,North,0,0.0,-999.0,76,0.00,,,-99.99,,2013-03-01 00:46:00,
2013-02-28 15:53:00,33.2,26.3,29.22,North,0,0.0,-999.0,75,0.00,,,-99.99,,2013-03-01 00:53:00,
2013-02-28 15:58:00,33.2,26.9,29.22,North,0,0.0,-999.0,77,0.00,,,-99.99,,2013-03-01 00:58:00,
2013-02-28 16:03:00,33.5,26.2,29.23,North,0,0.0,-999.0,74,0.00,,,-99.99,,2013-03-01 01:03:00,
2013-02-28 16:08:00,33.3,26.3,29.23,North,0,0.0,-999.0,75,0.00,,,-99.99,,2013-03-01 01:08:00,
2013-02-28 16:13:00,32.9,26.5,29.23,North,0,0.0,-999.0,77,0.00,,,-99.99,,2013-03-01 01:13:00,
2013-02-28 16:18:00,32.7,26.6,29.23,North,0,0.0,-999.0,78,0.00,,,-99.99,,2013-03-01 01:18:00,
2013-02-28 16:23:00,32.8,26.1,29.23,North,0,0.0,-999.0,76,0.00,,,-99.99,,2013-03-01 01:23:00,
2013-02-28 16:28:00,32.9,27.0,29.23,North,0,0.0,-999.0,78,0.00,,,-99.99,,2013-03-01 01:28:00,
2013-02-28 16:33:00,32.9,26.1,29.23,North,0,0.0,-999.0,75,0.00,,,-99.99,,2013-03-01 01:33:00,
2013-02-28 16:38:00,32.8,26.6,29.23,North,0,0.0,-999.0,77,0.00,,,-99.99,,2013-03-01 01:38:00,
2013-02-28 16:43:00,32.4,26.3,29.23,North,0,0.0,-999.0,77,0.00,,,-99.99,,2013-03-01 01:43:00,
2013-02-28 16:48:00,32.4,26.9,29.23,North,0,0.0,-999.0,79,0.00,,,-99.99,,2013-03-01 01:48:00,
2013-02-28 16:53:00,32.2,26.2,29.23,North,0,0.0,-999.0,78,0.00,,,-99.99,,2013-03-01 01:53:00,
2013-02-28 16:58:00,32.3,26.2,29.23,North,0,0.0,-999.0,78,0.00,,,-99.99,,2013-03-01 01:58:00,
2013-02-28 17:03:00,32.4,26.3,29.24,North,0,0.0,-999.0,77,0.00,,,-99.99,,2013-03-01 02:03:00,
2013-02-28 17:08:00,32.4,26.6,29.24,North,0,0.0,-999.0,78,0.00,,,-99.99,,2013-03-01 02:08:00,
2013-02-28 17:13:00,32.6,26.9,29.24,North,0,0.0,-999.0,79,0.00,,,-99.99,,2013-03-01 02:13:00,
2013-02-28 17:18:00,32.2,26.7,29.24,North,0,0.0,-999.0,79,0.00,,,-99.99,,2013-03-01 02:18:00,
2013-02-28 17:23:00,32.2,26.4,29.24,North,0,0.0,-999.0,78,0.00,,,-99.99,,2013-03-01 02:23:00,
2013-02-28 17:29:00,32.0,26.4,29.24,North,0,0.0,-999.0,79,0.00,,,-99.99,,2013-03-01 02:29:00,
2013-02-28 17:34:00,32.2,25.8,29.24,North,0,0.0,-999.0,77,0.00,,,-99.99,,2013-03-01 02:34:00,
2013-02-28 17:39:00,32.5,26.8,29.24,North,0,0.0,-999.0,79,0.00,,,-99.99,,2013-03-01 02:39:00,
2013-02-28 17:44:00,32.5,26.5,29.24,North,0,0.0,-999.0,78,0.00,,,-99.99,,2013-03-01 02:44:00,
2013-02-28 17:49:00,32.3,26.4,29.24,North,0,0.0,-999.0,78,0.00,,,-99.99,,2013-03-01 02:49:00,
2013-02-28 17:54:00,32.2,26.6,29.24,North,0,0.0,-999.0,79,0.00,,,-99.99,,2013-03-01 02:54:00,
2013-02-28 17:59:00,32.0,26.3,29.26,North,0,0.0,-999.0,79,0.00,,,-99.99,,2013-03-01 02:59:00,
2013-02-28 18:04:00,32.1,26.8,29.26,North,0,0.0,-999.0,80,0.00,,,-99.99,,2013-03-01 03:04:00,
2013-02-28 18:09:00,31.9,26.4,29.26,North,0,0.0,-999.0,80,0.00,,,-99.99,,2013-03-01 03:09:00,
2013-02-28 18:14:00,31.6,26.2,29.26,North,0,0.0,-999.0,80,0.00,,,-99.99,,2013-03-01 03:14:00,
2013-02-28 18:19:00,31.6,26.0,29.26,North,0,0.0,-999.0,79,0.00,,,-99.99,,2013-03-01 03:19:00,
2013-02-28 18:24:00,31.8,25.9,29.26,North,0,0.0,-999.0,78,0.00,,,-99.99,,2013-03-01 03:24:00,
2013-02-28 18:29:00,31.6,26.2,29.26,North,0,0.0,-999.0,80,0.00,,,-99.99,,2013-03-01 03:29:00,
2013-02-28 18:34:00,31.3,25.7,29.26,North,0,0.0,-999.0,79,0.00,,,-99.99,,2013-03-01 03:34:00,
2013-02-28 18:39:00,31.4,26.1,29.26,North,0,0.0,-999.0,80,0.00,,,-99.99,,2013-03-01 03:39:00,
2013-02-28 18:44:00,31.5,25.6,29.26,North,0,0.0,-999.0,78,0.00,,,-99.99,,2013-03-01 03:44:00,
2013-02-28 18:49:00,31.8,25.8,29.26,North,0,0.0,-999.0,78,0.00,,,-99.99,,2013-03-01 03:49:00,
2013-02-28 18:54:00,31.7,25.0,29.26,North,0,0.0,-999.0,76,0.00,,,-99.99,,2013-03-01 03:54:00,
2013-02-28 18:59:00,31.5,25.3,29.28,North,0,0.0,-999.0,77,0.00,,,-99.99,,2013-03-01 03:59:00,
2013-02-28 19:04:00,31.5,25.0,29.28,North,0,0.0,-999.0,76,0.00,,,-99.99,,2013-03-01 04:04:00,
2013-02-28 19:09:00,31.1,24.7,29.28,North,0,0.0,-999.0,76,0.00,,,-99.99,,2013-03-01 04:09:00,
2013-02-28 19:14:00,31.1,24.7,29.28,North,0,0.0,-999.0,76,0.00,,,-99.99,,2013-03-01 04:14:00,
2013-02-28 19:19:00,31.0,24.5,29.28,North,0,0.0,-999.0,76,0.00,,,-99.99,,2013-03-01 04:19:00,
2013-02-28 19:24:00,30.9,24.5,29.28,North,0,0.0,-999.0,76,0.00,,,-99.99,,2013-03-01 04:24:00,
2013-02-28 19:29:00,30.8,24.7,29.28,North,0,0.0,-999.0,77,0.00,,,-99.99,,2013-03-01 04:29:00,
2013-02-28 19:34:00,30.8,24.7,29.28,North,0,0.0,-999.0,77,0.00,,,-99.99,,2013-03-01 04:34:00,
2013-02-28 19:39:00,30.6,24.6,29.28,North,0,0.0,-999.0,77,0.00,,,-99.99,,2013-03-01 04:39:00,
2013-02-28 19:44:00,30.5,25.0,29.28,North,0,0.0,-999.0,79,0.00,,,-99.99,,2013-03-01 04:44:00,
2013-02-28 19:49:00,30.2,24.7,29.28,North,0,0.0,-999.0,79,0.00,,,-99.99,,2013-03-01 04:49:00,
2013-02-28 19:54:00,30.0,24.4,29.28,North,0,0.0,-999.0,79,0.00,,,-99.99,,2013-03-01 04:54:00,
2013-02-28 19:59:00,30.1,24.6,29.30,North,0,0.0,-999.0,79,0.00,,,-99.99,,2013-03-01 04:59:00,
2013-02-28 20:00:00,29.9,24.5,29.30,North,0,0.0,-999.0,79,0.00,,,-99.99,,2013-03-01 05:00:00,
2013-02-28 20:03:00,29.9,24.8,29.30,North,0,0.0,-999.0,81,0.00,,,-99.99,,2013-03-01 05:03:00,
2013-02-28 20:06:00,29.7,24.5,29.30,North,0,0.0,-999.0,80,0.00,,,-99.99,,2013-03-01 05:06:00,
2013-02-28 20:07:00,29.7,24.6,29.30,North,0,0.0,-999.0,80,0.00,,,-99.99,,2013-03-01 05:07:00,
2013-02-28 20:12:00,29.5,24.4,29.30,North,0,0.0,-999.0,80,0.00,,,-99.99,,2013-03-01 05:12:00,
2013-02-28 20:17:00,29.6,24.4,29.30,North,0,0.0,-999.0,80,0.00,,,-99.99,,2013-03-01 05:17:00,
2013-02-28 20:22:00,29.7,24.6,29.30,North,0,0.0,-999.0,81,0.00,,,-99.99,,2013-03-01 05:22:00,
2013-02-28 20:27:00,29.7,24.7,29.30,North,0,0.0,-999.0,81,0.00,,,-99.99,,2013-03-01 05:27:00,
2013-02-28 20:32:00,29.8,24.7,29.30,North,0,0.0,-999.0,80,0.00,,,-99.99,,2013-03-01 05:32:00,
2013-02-28 20:37:00,29.7,24.4,29.30,North,0,0.0,-999.0,80,0.00,,,-99.99,,2013-03-01 05:37:00,
2013-02-28 20:42:00,29.7,24.3,29.30,North,0,0.0,-999.0,80,0.00,,,-99.99,,2013-03-01 05:42:00,
2013-02-28 20:47:00,29.7,24.5,29.30,North,0,0.0,-999.0,80,0.00,,,-99.99,,2013-03-01 05:47:00,
2013-02-28 20:52:00,29.7,24.8,29.30,North,0,0.0,-999.0,81,0.00,,,-99.99,,2013-03-01 05:52:00,
2013-02-28 20:57:00,29.7,24.7,29.30,North,0,0.0,-999.0,81,0.00,,,-99.99,,2013-03-01 05:57:00,
2013-02-28 21:02:00,29.6,24.8,29.32,North,0,0.0,-999.0,81,0.00,,,-99.99,,2013-03-01 06:02:00,
2013-02-28 21:07:00,29.9,25.5,29.32,North,0,0.0,-999.0,83,0.00,,,-99.99,,2013-03-01 06:07:00,
2013-02-28 21:12:00,29.8,25.4,29.32,North,0,0.0,-999.0,83,0.00,,,-99.99,,2013-03-01 06:12:00,
2013-02-28 21:17:00,29.5,25.0,29.32,North,0,0.0,-999.0,82,0.00,,,-99.99,,2013-03-01 06:17:00,
2013-02-28 21:22:00,29.5,25.1,29.32,North,0,0.0,-999.0,83,0.00,,,-99.99,,2013-03-01 06:22:00,
2013-02-28 21:27:00,29.7,25.2,29.32,North,0,0.0,-999.0,83,0.00,,,-99.99,,2013-03-01 06:27:00,
2013-02-28 21:32:00,29.7,25.2,29.32,North,0,0.0,-999.0,83,0.00,,,-99.99,,2013-03-01 06:32:00,
2013-02-28 21:37:00,29.5,25.1,29.32,North,0,0.0,-999.0,83,0.00,,,-99.99,,2013-03-01 06:37:00,
2013-02-28 21:42:00,29.4,25.0,29.32,North,0,0.0,-999.0,83,0.00,,,-99.99,,2013-03-01 06:42:00,
2013-02-28 21:47:00,29.5,25.1,29.32,North,0,0.0,-999.0,83,0.00,,,-99.99,,2013-03-01 06:47:00,
2013-02-28 21:52:00,29.4,25.1,29.32,North,0,0.0,-999.0,83,0.00,,,-99.99,,2013-03-01 06:52:00,
2013-02-28 21:57:00,29.3,25.2,29.32,North,0,0.0,-999.0,84,0.00,,,-99.99,,2013-03-01 06:57:00,
2013-02-28 22:02:00,29.4,25.3,29.34,North,0,0.0,-999.0,84,0.00,,,-99.99,,2013-03-01 07:02:00,
2013-02-28 22:07:00,29.5,25.5,29.34,North,0,0.0,-999.0,84,0.00,,,-99.99,,2013-03-01 07:07:00,
2013-02-28 22:12:00,29.6,25.6,29.34,North,0,0.0,-999.0,84,0.00,,,-99.99,,2013-03-01 07:12:00,
2013-02-28 22:17:00,29.9,25.7,29.34,North,0,0.0,-999.0,84,0.00,,,-99.99,,2013-03-01 07:17:00,
2013-02-28 22:22:00,29.9,25.6,29.34,North,0,0.0,-999.0,83,0.00,,,-99.99,,2013-03-01 07:22:00,
2013-02-28 22:27:00,30.3,25.7,29.34,North,0,0.0,-999.0,82,0.00,,,-99.99,,2013-03-01 07:27:00,
2013-02-28 22:32:00,30.2,25.5,29.34,North,0,0.0,-999.0,82,0.00,,,-99.99,,2013-03-01 07:32:00,
2013-02-28 22:37:00,30.2,25.4,29.34,North,0,0.0,-999.0,82,0.00,,,-99.99,,2013-03-01 07:37:00,
2013-02-28 22:42:00,30.0,25.3,29.34,North,0,0.0,-999.0,82,0.00,,,-99.99,,2013-03-01 07:42:00,
2013-02-28 22:47:00,30.0,25.2,29.34,North,0,0.0,-999.0,82,0.00,,,-99.99,,2013-03-01 07:47:00,
2013-02-28 22:52:00,29.7,25.1,29.34,North,0,0.0,-999.0,82,0.00,,,-99.99,,2013-03-01 07:52:00,
2013-02-28 22:57:00,29.6,24.9,29.34,North,0,0.0,-999.0,82,0.00,,,-99.99,,2013-03-01 07:57:00,
2013-02-28 23:02:00,29.7,25.2,29.35,North,0,0.0,-999.0,83,0.00,,,-99.99,,2013-03-01 08:02:00,
2013-02-28 23:09:00,29.5,25.1,29.35,North,0,0.0,-999.0,83,0.00,,,-99.99,,2013-03-01 08:09:00,
2013-02-28 23:14:00,29.7,25.1,29.35,North,0,0.0,-999.0,83,0.00,,,-99.99,,2013-03-01 08:14:00,
2013-02-28 23:19:00,29.4,25.0,29.35,North,0,0.0,-999.0,83,0.00,,,-99.99,,2013-03-01 08:19:00,
2013-02-28 23:24:00,29.4,25.0,29.35,North,0,0.0,-999.0,83,0.00,,,-99.99,,2013-03-01 08:24:00,
2013-02-28 23:29:00,29.4,24.9,29.35,North,0,0.0,-999.0,83,0.00,,,-99.99,,2013-03-01 08:29:00,
2013-02-28 23:34:00,29.4,24.8,29.35,North,0,0.0,-999.0,82,0.00,,,-99.99,,2013-03-01 08:34:00,
2013-02-28 23:39:00,29.3,25.4,29.35,North,0,0.0,-999.0,84,0.00,,,-99.99,,2013-03-01 08:39:00,
2013-02-28 23:44:00,29.2,25.1,29.35,North,0,0.0,-999.0,84,0.00,,,-99.99,,2013-03-01 08:44:00,
2013-02-28 23:49:00,29.1,25.2,29.35,North,0,0.0,-999.0,85,0.00,,,-99.99,,2013-03-01 08:49:00,
2013-02-28 23:54:00,29.5,25.2,29.35,North,0,0.0,-999.0,83,0.00,,,-99.99,,2013-03-01 08:54:00,
2013-02-28 23:59:00,29.4,24.8,29.37,North,0,0.0,-999.0,82,0.00,,,-99.99,,2013-03-01 08:59:00,